Time;durP1;ratioP1;P1;durP2;ratioP2;P2;SDS_P1;SDS_P2;PMS_P1;PMS_P2;Temp;Humidity;BMP_temperature;BMP_pressure;BME280_temperature;BME280_humidity;BME280_pressure;Samples;Min_cycle;Max_cycle;Signal;HPM_P1;HPM_P2
2023/07/14 00:00:22;;;;;;;0.57;0.28;;;14.50;99.90;;;;;;5002199;28;20045;-68
2023/07/14 00:02:50;;;;;;;0.22;0.17;;;14.40;99.90;;;;;;5004843;28;20138;-69
2023/07/14 00:05:33;;;;;;;0.55;0.20;;;14.40;99.90;;;;;;4994432;28;20046;-69
2023/07/14 00:07:58;;;;;;;0.40;0.13;;;14.40;99.90;;;;;;5001527;28;20049;-69
2023/07/14 00:10:33;;;;;;;0.60;0.40;;;14.40;99.90;;;;;;5001835;28;20046;-69
2023/07/14 00:13:02;;;;;;;0.60;0.20;;;14.30;99.90;;;;;;4999044;28;20073;-69
2023/07/14 00:15:33;;;;;;;0.52;0.30;;;14.30;99.90;;;;;;5002396;28;20049;-69
2023/07/14 00:18:16;;;;;;;0.77;0.35;;;14.30;99.90;;;;;;5006439;28;20521;-69
2023/07/14 00:20:42;;;;;;;1.02;0.60;;;14.20;99.90;;;;;;5005288;28;20034;-69
2023/07/14 00:23:11;;;;;;;1.42;0.40;;;14.20;99.90;;;;;;4996749;28;20084;-69
2023/07/14 00:25:38;;;;;;;0.28;0.20;;;14.20;99.90;;;;;;4997387;28;21379;-69
2023/07/14 00:28:20;;;;;;;0.60;0.30;;;14.20;99.90;;;;;;4999399;28;20039;-69
2023/07/14 00:30:48;;;;;;;1.85;0.35;;;14.20;99.90;;;;;;5002034;28;20050;-69
2023/07/14 00:33:18;;;;;;;0.38;0.20;;;14.20;99.90;;;;;;4996757;28;20092;-69
2023/07/14 00:35:47;;;;;;;0.90;0.60;;;14.20;99.90;;;;;;4995968;28;20042;-69
2023/07/14 00:38:13;;;;;;;3.50;0.30;;;14.20;99.90;;;;;;4999367;28;20045;-69
2023/07/14 00:40:47;;;;;;;0.68;0.38;;;14.20;99.90;;;;;;4999853;28;20038;-68
2023/07/14 00:43:24;;;;;;;1.40;0.38;;;14.20;99.90;;;;;;4997145;28;20038;-68
2023/07/14 00:45:52;;;;;;;0.95;0.45;;;14.20;99.90;;;;;;5008548;28;20433;-69
2023/07/14 00:48:23;;;;;;;1.27;0.47;;;14.20;99.90;;;;;;5001760;28;20459;-69
2023/07/14 00:51:03;;;;;;;0.50;0.32;;;14.20;99.90;;;;;;5005234;28;20107;-69
2023/07/14 00:53:38;;;;;;;0.30;0.22;;;14.20;99.90;;;;;;5001234;28;20050;-69
2023/07/14 00:56:10;;;;;;;0.80;0.30;;;14.20;99.90;;;;;;5001647;28;20093;-69
2023/07/14 00:58:38;;;;;;;0.68;0.40;;;14.20;99.90;;;;;;5005834;28;20122;-69
2023/07/14 01:01:10;;;;;;;0.47;0.30;;;14.20;99.90;;;;;;5002083;28;20045;-69
2023/07/14 01:03:41;;;;;;;0.30;0.25;;;14.20;99.90;;;;;;5000142;28;20061;-69
2023/07/14 01:06:15;;;;;;;0.82;0.47;;;14.10;99.90;;;;;;5003536;28;20049;-68
2023/07/14 01:08:46;;;;;;;0.30;0.13;;;14.10;99.90;;;;;;5008648;28;20433;-69
2023/07/14 01:11:12;;;;;;;0.65;0.47;;;14.10;99.90;;;;;;5002697;28;20147;-69
2023/07/14 01:13:38;;;;;;;0.57;0.38;;;14.10;99.90;;;;;;5005086;28;20387;-69
2023/07/14 01:16:04;;;;;;;0.10;0.10;;;14.10;99.90;;;;;;5006210;28;20042;-69
2023/07/14 01:18:29;;;;;;;0.98;0.40;;;14.10;99.90;;;;;;5005857;28;20054;-69
2023/07/14 01:20:55;;;;;;;0.75;0.30;;;14.10;99.90;;;;;;5011233;28;20038;-69
2023/07/14 01:23:43;;;;;;;0.40;0.28;;;14.10;99.90;;;;;;5005866;28;20604;-69
2023/07/14 01:26:14;;;;;;;0.63;0.35;;;14.10;99.90;;;;;;5003578;28;20045;-69
2023/07/14 01:28:41;;;;;;;1.08;0.40;;;14.00;99.90;;;;;;5000670;28;20039;-69
2023/07/14 01:31:12;;;;;;;0.52;0.25;;;14.10;99.90;;;;;;5001655;28;20113;-69
2023/07/14 01:33:37;;;;;;;0.20;0.10;;;14.10;99.90;;;;;;5004688;28;20157;-69
2023/07/14 01:36:04;;;;;;;0.63;0.20;;;14.00;99.90;;;;;;5004637;28;20041;-69
2023/07/14 01:38:30;;;;;;;1.20;0.22;;;14.00;99.90;;;;;;5004458;28;20035;-68
2023/07/14 01:40:56;;;;;;;0.85;0.40;;;14.00;99.90;;;;;;5002050;28;20041;-69
2023/07/14 01:43:22;;;;;;;1.02;0.35;;;14.00;99.90;;;;;;5002657;28;20045;-68
2023/07/14 01:45:59;;;;;;;0.65;0.35;;;14.00;99.90;;;;;;5004449;28;20088;-69
2023/07/14 01:48:29;;;;;;;0.77;0.43;;;14.00;99.90;;;;;;5002996;28;20116;-69
2023/07/14 01:51:04;;;;;;;0.47;0.25;;;13.90;99.90;;;;;;5003386;28;20379;-69
2023/07/14 01:53:35;;;;;;;0.38;0.15;;;13.90;99.90;;;;;;5005161;28;20056;-68
2023/07/14 01:56:04;;;;;;;0.55;0.30;;;13.90;99.90;;;;;;5004745;28;20030;-69
2023/07/14 01:58:37;;;;;;;0.82;0.40;;;13.90;99.90;;;;;;4998329;28;20383;-69
2023/07/14 02:01:04;;;;;;;1.08;0.20;;;13.90;99.90;;;;;;5003709;28;20109;-69
2023/07/14 02:03:41;;;;;;;0.28;0.17;;;13.90;99.90;;;;;;5005462;28;20078;-69
2023/07/14 02:06:07;;;;;;;0.30;0.28;;;13.90;99.90;;;;;;5004055;28;20046;-69
2023/07/14 02:08:33;;;;;;;0.30;0.17;;;13.90;99.90;;;;;;4998498;28;20061;-69
2023/07/14 02:10:59;;;;;;;0.43;0.20;;;13.80;99.90;;;;;;5001912;28;20192;-69
2023/07/14 02:13:26;;;;;;;0.20;0.10;;;13.80;99.90;;;;;;5003250;28;20117;-69
2023/07/14 02:15:53;;;;;;;0.82;0.28;;;13.80;99.90;;;;;;5010694;28;20496;-69
2023/07/14 02:18:23;;;;;;;0.45;0.20;;;13.80;99.90;;;;;;5004071;28;20042;-69
2023/07/14 02:20:49;;;;;;;0.38;0.20;;;13.70;99.90;;;;;;4999662;28;20053;-69
2023/07/14 02:23:20;;;;;;;0.40;0.20;;;13.70;99.90;;;;;;5001168;28;20042;-69
2023/07/14 02:25:58;;;;;;;0.10;0.10;;;13.70;99.90;;;;;;5003029;28;20046;-68
2023/07/14 02:28:24;;;;;;;0.08;0.08;;;13.70;99.90;;;;;;4999525;28;20117;-68
2023/07/14 02:30:58;;;;;;;0.30;0.15;;;13.60;99.90;;;;;;5005026;28;20050;-69
2023/07/14 02:33:30;;;;;;;0.83;0.30;;;13.60;99.90;;;;;;5005217;28;20117;-68
2023/07/14 02:36:10;;;;;;;0.40;0.20;;;13.60;99.90;;;;;;5006087;28;20107;-69
2023/07/14 02:38:37;;;;;;;0.85;0.40;;;13.60;99.90;;;;;;4996455;28;20125;-69
2023/07/14 02:41:14;;;;;;;0.22;0.10;;;13.60;99.90;;;;;;4999848;28;20131;-69
2023/07/14 02:43:40;;;;;;;0.65;0.35;;;13.50;99.90;;;;;;5003804;28;20038;-69
2023/07/14 02:46:21;;;;;;;0.57;0.35;;;13.50;99.90;;;;;;5005736;28;20041;-69
2023/07/14 02:48:49;;;;;;;0.77;0.38;;;13.50;99.90;;;;;;5006473;28;20458;-69
2023/07/14 02:51:15;;;;;;;0.30;0.20;;;13.50;99.90;;;;;;5007883;28;20113;-69
2023/07/14 02:53:41;;;;;;;0.17;0.10;;;13.50;99.90;;;;;;5004807;28;20114;-68
2023/07/14 02:56:07;;;;;;;0.20;0.10;;;13.50;99.90;;;;;;5004381;28;20045;-69
2023/07/14 02:58:33;;;;;;;0.28;0.15;;;13.50;99.90;;;;;;5003263;28;20061;-69
2023/07/14 03:01:00;;;;;;;0.13;0.10;;;13.50;99.90;;;;;;5004675;28;20374;-69
2023/07/14 03:03:27;;;;;;;0.40;0.15;;;13.40;99.90;;;;;;5007693;28;20124;-69
2023/07/14 03:05:54;;;;;;;0.35;0.17;;;13.40;99.90;;;;;;5006269;28;20037;-68
2023/07/14 03:08:20;;;;;;;0.57;0.28;;;13.40;99.90;;;;;;4999274;28;20109;-68
2023/07/14 03:10:49;;;;;;;0.22;0.10;;;13.40;99.90;;;;;;5009008;28;20045;-68
2023/07/14 03:13:16;;;;;;;1.02;0.10;;;13.40;99.90;;;;;;5001691;28;20125;-68
2023/07/14 03:15:43;;;;;;;0.35;0.15;;;13.40;99.90;;;;;;5004368;28;20042;-68
2023/07/14 03:18:09;;;;;;;0.57;0.20;;;13.30;99.90;;;;;;4998703;28;20104;-68
2023/07/14 03:20:37;;;;;;;0.22;0.10;;;13.30;99.90;;;;;;5002825;28;20505;-68
2023/07/14 03:23:03;;;;;;;0.60;0.22;;;13.30;99.90;;;;;;5005713;28;20050;-68
2023/07/14 03:25:29;;;;;;;0.90;0.25;;;13.30;99.90;;;;;;4984306;28;20049;-68
2023/07/14 03:27:54;;;;;;;0.38;0.20;;;13.30;99.90;;;;;;5004683;28;20038;-69
2023/07/14 03:30:20;;;;;;;1.65;0.25;;;13.30;99.90;;;;;;5002764;28;20042;-68
2023/07/14 03:32:46;;;;;;;0.38;0.10;;;13.30;99.90;;;;;;5001377;28;20494;-68
2023/07/14 03:35:12;;;;;;;1.55;0.20;;;13.30;99.90;;;;;;4996168;28;20046;-68
2023/07/14 03:37:38;;;;;;;0.95;0.30;;;13.20;99.90;;;;;;5004809;28;20046;-68
2023/07/14 03:40:05;;;;;;;0.38;0.20;;;13.20;99.90;;;;;;5005247;28;20038;-68
2023/07/14 03:42:32;;;;;;;0.52;0.10;;;13.20;99.90;;;;;;5004609;28;20046;-69
2023/07/14 03:44:58;;;;;;;0.80;0.38;;;13.20;99.90;;;;;;5002962;28;20100;-68
2023/07/14 03:47:23;;;;;;;0.55;0.30;;;13.10;99.90;;;;;;4999946;28;20428;-68
2023/07/14 03:49:49;;;;;;;1.27;0.22;;;13.10;99.90;;;;;;5006147;28;20100;-68
2023/07/14 03:52:15;;;;;;;0.28;0.13;;;13.10;99.90;;;;;;4983654;28;20043;-69
2023/07/14 03:54:40;;;;;;;0.10;0.00;;;13.10;99.90;;;;;;4997327;28;20041;-69
2023/07/14 03:57:06;;;;;;;0.60;0.32;;;13.10;99.90;;;;;;4990594;28;20213;-69
2023/07/14 03:59:32;;;;;;;0.88;0.40;;;13.20;99.90;;;;;;5004232;28;20356;-69
2023/07/14 04:01:58;;;;;;;0.35;0.15;;;13.10;99.90;;;;;;4996453;28;20053;-69
2023/07/14 04:04:23;;;;;;;0.65;0.20;;;13.10;99.90;;;;;;5004124;28;20050;-69
2023/07/14 04:06:49;;;;;;;0.22;0.13;;;13.20;99.90;;;;;;5003111;28;20170;-69
2023/07/14 04:09:15;;;;;;;0.20;0.20;;;13.10;99.90;;;;;;5005636;28;20045;-69
2023/07/14 04:11:41;;;;;;;0.57;0.22;;;13.20;99.90;;;;;;4999265;28;20057;-66
2023/07/14 04:14:07;;;;;;;0.50;0.20;;;13.10;99.90;;;;;;4995032;28;20073;-66
2023/07/14 04:16:35;;;;;;;0.25;0.20;;;13.20;99.90;;;;;;5002004;28;20068;-65
2023/07/14 04:19:02;;;;;;;0.15;0.05;;;13.20;99.90;;;;;;5000661;28;20049;-66
2023/07/14 04:21:29;;;;;;;0.65;0.30;;;13.20;99.90;;;;;;5006487;28;20081;-66
2023/07/14 04:23:56;;;;;;;0.10;0.10;;;13.20;99.90;;;;;;5006087;28;20804;-66
2023/07/14 04:26:23;;;;;;;0.38;0.20;;;13.20;99.90;;;;;;5002215;28;20386;-65
2023/07/14 04:28:49;;;;;;;0.30;0.22;;;13.20;99.90;;;;;;4999759;28;20065;-66
2023/07/14 04:31:15;;;;;;;0.15;0.10;;;13.30;99.90;;;;;;5001994;28;20042;-66
2023/07/14 04:33:45;;;;;;;0.65;0.30;;;13.30;99.90;;;;;;4998740;28;20045;-66
2023/07/14 04:36:11;;;;;;;0.50;0.22;;;13.40;99.90;;;;;;5006845;28;20048;-65
2023/07/14 04:38:37;;;;;;;0.17;0.10;;;13.40;99.90;;;;;;5000639;28;20073;-66
2023/07/14 04:41:03;;;;;;;1.00;0.20;;;13.50;99.90;;;;;;5001974;28;20133;-66
2023/07/14 04:43:29;;;;;;;0.85;0.40;;;13.60;99.90;;;;;;4994022;28;20049;-66
2023/07/14 04:45:55;;;;;;;0.70;0.40;;;13.70;99.90;;;;;;5003913;28;20422;-66
2023/07/14 04:48:24;;;;;;;0.95;0.40;;;13.80;99.90;;;;;;5003785;28;20045;-66
2023/07/14 04:50:51;;;;;;;0.38;0.28;;;13.90;99.90;;;;;;5003077;28;20045;-66
2023/07/14 04:53:17;;;;;;;0.20;0.20;;;13.90;99.90;;;;;;5006961;28;20041;-65
2023/07/14 04:55:45;;;;;;;0.80;0.40;;;14.10;99.90;;;;;;5007182;28;20050;-66
2023/07/14 04:58:14;;;;;;;0.52;0.28;;;14.20;99.90;;;;;;5008050;28;20428;-65
2023/07/14 05:00:42;;;;;;;0.77;0.30;;;14.20;99.90;;;;;;5002314;28;20119;-67
2023/07/14 05:03:08;;;;;;;0.63;0.30;;;14.20;99.90;;;;;;5005752;28;20469;-67
2023/07/14 05:05:34;;;;;;;0.47;0.28;;;14.30;99.90;;;;;;5005076;28;20077;-65
2023/07/14 05:08:01;;;;;;;0.57;0.35;;;14.40;99.90;;;;;;5003966;28;20076;-65
2023/07/14 05:10:28;;;;;;;0.20;0.10;;;14.40;99.90;;;;;;5005828;28;20060;-64
2023/07/14 05:12:58;;;;;;;0.47;0.20;;;14.50;99.90;;;;;;5002372;28;20042;-64
2023/07/14 05:15:25;;;;;;;0.17;0.10;;;14.50;99.90;;;;;;5002698;28;20386;-65
2023/07/14 05:17:52;;;;;;;0.25;0.20;;;14.60;99.90;;;;;;5002943;28;20036;-65
2023/07/14 05:20:19;;;;;;;0.43;0.13;;;14.70;99.90;;;;;;5004564;28;20709;-65
2023/07/14 05:22:51;;;;;;;1.02;0.20;;;14.70;99.90;;;;;;5005178;28;20105;-65
2023/07/14 05:25:17;;;;;;;0.30;0.10;;;14.80;99.90;;;;;;5003761;28;20049;-65
2023/07/14 05:27:44;;;;;;;0.93;0.40;;;14.90;99.90;;;;;;5009488;28;20382;-67
2023/07/14 05:30:11;;;;;;;0.50;0.30;;;14.90;99.90;;;;;;5001476;28;20037;-66
2023/07/14 05:32:38;;;;;;;0.70;0.20;;;15.00;99.90;;;;;;5004925;28;20029;-66
2023/07/14 05:35:04;;;;;;;0.80;0.45;;;15.10;99.90;;;;;;5006609;28;20050;-65
2023/07/14 05:37:30;;;;;;;0.70;0.30;;;15.20;99.90;;;;;;5006256;28;20042;-67
2023/07/14 05:39:56;;;;;;;0.20;0.17;;;15.20;99.90;;;;;;5003301;28;20054;-65
2023/07/14 05:42:21;;;;;;;0.52;0.35;;;15.20;99.90;;;;;;5007450;28;20494;-67
2023/07/14 05:44:47;;;;;;;0.60;0.40;;;15.20;99.90;;;;;;5008932;28;20107;-66
2023/07/14 05:47:14;;;;;;;0.43;0.20;;;15.30;99.90;;;;;;5007025;28;20045;-66
2023/07/14 05:49:39;;;;;;;0.57;0.30;;;15.30;99.90;;;;;;5008031;28;20037;-66
2023/07/14 05:52:09;;;;;;;0.20;0.10;;;15.40;99.90;;;;;;5008990;28;20037;-66
2023/07/14 05:54:35;;;;;;;0.55;0.55;;;15.50;99.90;;;;;;5009879;28;20038;-67
2023/07/14 05:57:01;;;;;;;0.57;0.32;;;15.60;99.90;;;;;;5005813;28;20184;-67
2023/07/14 05:59:27;;;;;;;0.30;0.15;;;15.70;99.90;;;;;;5007842;28;20042;-66
2023/07/14 06:01:53;;;;;;;0.63;0.15;;;15.80;99.90;;;;;;5008549;28;20432;-67
2023/07/14 06:04:19;;;;;;;3.67;0.65;;;15.90;99.90;;;;;;5008761;28;20058;-66
2023/07/14 06:06:44;;;;;;;0.60;0.38;;;16.10;99.90;;;;;;5006541;28;20046;-66
2023/07/14 06:09:13;;;;;;;2.42;0.30;;;16.30;99.90;;;;;;5007993;28;20037;-67
2023/07/14 06:11:39;;;;;;;1.27;0.63;;;16.50;99.90;;;;;;5006352;28;20060;-66
2023/07/14 06:14:05;;;;;;;1.17;0.55;;;16.60;99.90;;;;;;5007645;28;20049;-67
2023/07/14 06:16:31;;;;;;;1.02;0.40;;;16.80;99.90;;;;;;5009535;28;20053;-67
2023/07/14 06:18:57;;;;;;;0.30;0.20;;;16.90;99.90;;;;;;4984987;28;20042;-66
2023/07/14 06:21:23;;;;;;;0.50;0.30;;;17.10;99.90;;;;;;5001019;28;20038;-66
2023/07/14 06:23:49;;;;;;;1.30;0.40;;;17.20;99.90;;;;;;5005157;28;20374;-66
2023/07/14 06:26:15;;;;;;;0.65;0.30;;;17.30;99.90;;;;;;5004095;28;20034;-66
2023/07/14 06:28:42;;;;;;;0.52;0.50;;;17.40;99.90;;;;;;4997618;28;20747;-66
2023/07/14 06:31:13;;;;;;;0.63;0.43;;;17.50;99.90;;;;;;5002672;28;20491;-67
2023/07/14 06:33:39;;;;;;;0.30;0.10;;;17.70;99.90;;;;;;5004638;28;20121;-68
2023/07/14 06:36:05;;;;;;;0.82;0.40;;;17.80;99.90;;;;;;4997548;28;20053;-66
2023/07/14 06:38:31;;;;;;;0.63;0.40;;;17.90;99.90;;;;;;5001800;28;20034;-66
2023/07/14 06:41:03;;;;;;;1.15;0.38;;;18.00;99.90;;;;;;5002022;28;20034;-66
2023/07/14 06:43:32;;;;;;;0.57;0.20;;;18.20;99.90;;;;;;5005055;28;20049;-66
2023/07/14 06:45:58;;;;;;;1.73;0.60;;;18.30;99.90;;;;;;4996340;28;20439;-66
2023/07/14 06:48:26;;;;;;;1.23;0.45;;;18.40;99.90;;;;;;4998475;28;20042;-67
2023/07/14 06:50:52;;;;;;;0.73;0.40;;;18.50;99.90;;;;;;5004978;28;20385;-66
2023/07/14 06:53:19;;;;;;;0.25;0.15;;;18.60;99.90;;;;;;4997898;28;20080;-66
2023/07/14 06:55:45;;;;;;;0.50;0.30;;;18.80;99.90;;;;;;4995513;28;20042;-66
2023/07/14 06:58:11;;;;;;;0.88;0.50;;;18.90;99.90;;;;;;4998889;28;20045;-65
2023/07/14 07:00:38;;;;;;;3.15;0.20;;;19.00;99.90;;;;;;5002280;28;20096;-66
2023/07/14 07:03:05;;;;;;;0.38;0.20;;;19.10;99.90;;;;;;5000696;28;20139;-66
2023/07/14 07:05:38;;;;;;;0.40;0.25;;;19.20;99.90;;;;;;5000099;28;20074;-66
2023/07/14 07:08:04;;;;;;;0.20;0.20;;;19.20;99.90;;;;;;5003009;28;20112;-65
2023/07/14 07:10:30;;;;;;;1.45;0.82;;;19.30;99.90;;;;;;5004799;28;20046;-66
2023/07/14 07:12:56;;;;;;;0.68;0.55;;;19.50;99.90;;;;;;4999925;28;20399;-66
2023/07/14 07:15:22;;;;;;;0.90;0.45;;;19.60;99.90;;;;;;5002341;28;20046;-67
2023/07/14 07:17:48;;;;;;;0.50;0.22;;;19.70;99.90;;;;;;5005165;28;20114;-66
2023/07/14 07:20:14;;;;;;;0.68;0.20;;;19.80;99.90;;;;;;5000673;28;20088;-66
2023/07/14 07:22:41;;;;;;;0.17;0.00;;;19.90;99.90;;;;;;4997835;28;20129;-66
2023/07/14 07:25:07;;;;;;;0.50;0.20;;;20.00;99.90;;;;;;4996702;28;20724;-66
2023/07/14 07:27:34;;;;;;;0.35;0.10;;;20.00;99.90;;;;;;5003645;28;20100;-66
2023/07/14 07:30:03;;;;;;;0.50;0.25;;;20.10;99.90;;;;;;4999846;28;20367;-67
2023/07/14 07:32:29;;;;;;;0.28;0.10;;;20.00;99.90;;;;;;4996741;28;20060;-66
2023/07/14 07:34:59;;;;;;;0.30;0.13;;;20.10;99.90;;;;;;4994329;28;20045;-66
2023/07/14 07:37:25;;;;;;;0.30;0.10;;;20.20;99.90;;;;;;5005869;28;20048;-66
2023/07/14 07:39:53;;;;;;;0.20;0.20;;;20.40;99.90;;;;;;4998931;28;20124;-66
2023/07/14 07:42:19;;;;;;;0.32;0.15;;;20.50;99.90;;;;;;4995414;28;20046;-66
2023/07/14 07:44:45;;;;;;;0.43;0.25;;;20.60;99.90;;;;;;4993531;28;20046;-67
2023/07/14 07:47:12;;;;;;;0.10;0.00;;;20.60;99.90;;;;;;5000872;28;20045;-67
2023/07/14 07:49:38;;;;;;;0.35;0.15;;;20.60;99.90;;;;;;4998922;28;20050;-66
2023/07/14 07:52:05;;;;;;;0.20;0.05;;;20.50;99.90;;;;;;4997367;28;20086;-66
2023/07/14 07:54:31;;;;;;;0.25;0.10;;;20.60;99.90;;;;;;4998343;28;20117;-66
2023/07/14 07:56:57;;;;;;;1.10;0.17;;;20.60;99.90;;;;;;5003261;28;20034;-66
2023/07/14 07:59:22;;;;;;;1.67;0.30;;;20.70;99.90;;;;;;5002569;28;20041;-66
2023/07/14 08:01:48;;;;;;;0.38;0.20;;;20.70;99.90;;;;;;4995494;28;20110;-66
2023/07/14 08:04:15;;;;;;;0.45;0.20;;;20.80;99.90;;;;;;4999825;28;20123;-66
2023/07/14 08:06:41;;;;;;;0.63;0.30;;;20.80;99.90;;;;;;5007541;28;20054;-66
2023/07/14 08:09:08;;;;;;;0.20;0.10;;;20.90;99.90;;;;;;5005313;28;20057;-67
2023/07/14 08:11:34;;;;;;;0.20;0.10;;;21.00;99.90;;;;;;5009806;28;20555;-66
2023/07/14 08:14:04;;;;;;;0.98;0.20;;;21.10;99.90;;;;;;5006622;28;20034;-66
2023/07/14 08:16:30;;;;;;;1.13;0.20;;;21.20;99.90;;;;;;5007239;28;20065;-66
2023/07/14 08:18:56;;;;;;;0.35;0.10;;;21.30;99.90;;;;;;5010009;28;20042;-66
2023/07/14 08:21:22;;;;;;;0.13;0.10;;;21.50;99.90;;;;;;4995617;28;20119;-66
2023/07/14 08:23:48;;;;;;;0.05;0.00;;;21.70;99.90;;;;;;5004260;28;20042;-66
2023/07/14 08:26:14;;;;;;;0.20;0.10;;;21.80;99.90;;;;;;5004169;28;20031;-66
2023/07/14 08:28:40;;;;;;;0.20;0.10;;;21.90;99.90;;;;;;5005356;28;20042;-66
2023/07/14 08:31:09;;;;;;;0.10;0.10;;;21.90;99.90;;;;;;4997879;28;20453;-66
2023/07/14 08:33:35;;;;;;;0.05;0.00;;;21.90;99.90;;;;;;5006949;28;20080;-66
2023/07/14 08:36:03;;;;;;;0.80;0.15;;;21.90;99.90;;;;;;5004114;28;20434;-66
2023/07/14 08:38:33;;;;;;;0.68;0.10;;;22.00;99.90;;;;;;5005402;28;20837;-66
2023/07/14 08:41:33;;;;;;;0.20;0.10;;;22.10;99.90;;;;;;4997381;28;20046;-66
2023/07/14 08:44:17;;;;;;;0.30;0.20;;;22.10;99.90;;;;;;5005525;28;20180;-66
2023/07/14 08:47:01;;;;;;;0.40;0.10;;;22.30;99.90;;;;;;5000019;28;20358;-66
2023/07/14 08:49:42;;;;;;;;;;;22.40;99.90;;;;;;4996166;28;20438;-66
2023/07/14 08:52:19;;;;;;;0.00;0.00;;;22.60;99.90;;;;;;5000093;28;19917;-66
2023/07/14 08:54:50;;;;;;;0.00;0.00;;;22.90;99.90;;;;;;5006778;28;20038;-66
2023/07/14 08:57:19;;;;;;;0.32;0.15;;;23.20;99.90;;;;;;4995353;28;20410;-67
2023/07/14 08:59:46;;;;;;;0.00;0.00;;;23.30;99.90;;;;;;4998075;28;20097;-66
2023/07/14 09:02:30;;;;;;;0.15;0.08;;;23.60;99.90;;;;;;4999836;28;20243;-66
2023/07/14 09:05:03;;;;;;;0.10;0.00;;;23.90;99.90;;;;;;5005887;28;20453;-66
2023/07/14 09:07:29;;;;;;;1.30;0.20;;;24.30;99.90;;;;;;5004782;28;20050;-66
2023/07/14 09:09:55;;;;;;;0.40;0.13;;;24.40;99.90;;;;;;5001127;28;20052;-66
2023/07/14 09:12:51;;;;;;;0.25;0.10;;;24.40;99.90;;;;;;5001562;28;20050;-66
2023/07/14 09:15:22;;;;;;;0.55;0.10;;;24.50;99.90;;;;;;4999996;28;20445;-67
2023/07/14 09:17:51;;;;;;;0.00;0.00;;;24.60;99.90;;;;;;4994852;28;20047;-67
2023/07/14 09:20:23;;;;;;;0.40;0.15;;;24.80;99.90;;;;;;5005244;28;20081;-66
2023/07/14 09:23:05;;;;;;;1.83;0.10;;;24.90;99.90;;;;;;5004893;28;20034;-66
2023/07/14 09:25:50;;;;;;;0.15;0.10;;;25.00;99.90;;;;;;5001666;28;20054;-67
2023/07/14 09:28:20;;;;;;;0.28;0.17;;;25.30;99.90;;;;;;5011418;28;20038;-67
2023/07/14 09:30:49;;;;;;;1.52;0.30;;;25.30;99.90;;;;;;5003479;28;20050;-66
2023/07/14 09:33:18;;;;;;;0.20;0.00;;;25.00;99.90;;;;;;5004722;28;20042;-66
2023/07/14 09:35:45;;;;;;;0.22;0.20;;;25.00;99.90;;;;;;5016202;28;20046;-66
2023/07/14 09:38:15;;;;;;;0.38;0.15;;;25.10;99.90;;;;;;4998688;28;20038;-66
2023/07/14 09:40:43;;;;;;;0.20;0.10;;;25.10;99.40;;;;;;5002474;28;20371;-66
2023/07/14 09:43:10;;;;;;;0.43;0.10;;;25.10;99.20;;;;;;5006965;28;20046;-66
2023/07/14 09:45:38;;;;;;;0.17;0.15;;;25.30;99.90;;;;;;5004423;28;20045;-67
2023/07/14 09:48:30;;;;;;;0.22;0.10;;;25.50;99.90;;;;;;4998566;28;20125;-67
2023/07/14 09:51:09;;;;;;;0.70;0.17;;;25.60;96.90;;;;;;5001370;28;20042;-67
2023/07/14 09:53:38;;;;;;;0.70;0.28;;;25.70;99.90;;;;;;5000440;28;20118;-66
2023/07/14 09:56:13;;;;;;;0.28;0.10;;;25.60;99.90;;;;;;5004916;28;20039;-66
2023/07/14 09:58:49;;;;;;;0.57;0.10;;;25.20;98.30;;;;;;5005550;28;20045;-66
2023/07/14 10:01:15;;;;;;;0.25;0.10;;;24.70;99.50;;;;;;5004096;28;20036;-66
2023/07/14 10:03:54;;;;;;;0.20;0.00;;;24.40;99.70;;;;;;5009343;28;20062;-67
2023/07/14 10:06:26;;;;;;;0.20;0.13;;;24.10;99.90;;;;;;5004137;28;20088;-66
2023/07/14 10:09:13;;;;;;;0.32;0.10;;;23.90;99.90;;;;;;5003408;28;20048;-70
2023/07/14 10:11:40;;;;;;;0.10;0.10;;;23.70;99.90;;;;;;5007274;28;20076;-70
2023/07/14 10:14:36;;;;;;;0.40;0.10;;;23.50;99.90;;;;;;5004515;28;20042;-70
2023/07/14 10:17:04;;;;;;;0.10;0.03;;;23.50;99.90;;;;;;5000212;28;20092;-69
2023/07/14 10:19:38;;;;;;;0.10;0.08;;;23.50;99.90;;;;;;5003454;28;20056;-70
2023/07/14 10:22:11;;;;;;;1.15;0.20;;;23.50;99.90;;;;;;5006011;28;20367;-70
2023/07/14 10:24:37;;;;;;;0.10;0.00;;;23.90;99.90;;;;;;5002249;28;20046;-68
2023/07/14 10:27:19;;;;;;;0.30;0.03;;;24.30;99.90;;;;;;4999920;28;20045;-68
2023/07/14 10:29:57;;;;;;;0.45;0.10;;;24.80;99.90;;;;;;5002187;28;20063;-68
2023/07/14 10:32:39;;;;;;;0.30;0.20;;;25.20;99.90;;;;;;5000696;28;20244;-69
2023/07/14 10:35:24;;;;;;;0.10;0.00;;;25.60;99.90;;;;;;4999617;28;20092;-69
2023/07/14 10:38:05;;;;;;;0.52;0.10;;;26.00;99.90;;;;;;4997194;28;20034;-68
2023/07/14 10:40:37;;;;;;;0.47;0.10;;;26.00;98.50;;;;;;5004201;28;20041;-69
2023/07/14 10:43:23;;;;;;;0.10;0.00;;;26.00;99.90;;;;;;5004302;28;20034;-68
2023/07/14 10:45:55;;;;;;;0.30;0.00;;;26.20;98.80;;;;;;4999216;28;20038;-68
2023/07/14 10:48:27;;;;;;;0.00;0.00;;;26.20;98.30;;;;;;5001844;28;20250;-69
2023/07/14 10:51:02;;;;;;;0.08;0.00;;;26.20;96.80;;;;;;5001571;28;20049;-68
2023/07/14 10:53:51;;;;;;;0.50;0.10;;;26.10;93.90;;;;;;4996299;28;20075;-68
2023/07/14 10:56:27;;;;;;;0.10;0.00;;;26.30;97.70;;;;;;5001949;28;20038;-68
2023/07/14 10:59:00;;;;;;;0.63;0.15;;;26.40;97.10;;;;;;5004336;28;20049;-68
2023/07/14 11:01:36;;;;;;;0.57;0.20;;;26.20;96.20;;;;;;5002615;28;20092;-69
2023/07/14 11:04:13;;;;;;;0.35;0.10;;;26.10;96.40;;;;;;5004506;28;20054;-69
2023/07/14 11:06:45;;;;;;;0.17;0.08;;;26.20;92.20;;;;;;5003613;28;20038;-69
2023/07/14 11:09:12;;;;;;;0.32;0.10;;;26.60;98.20;;;;;;5006055;28;20120;-69
2023/07/14 11:11:59;;;;;;;0.10;0.00;;;26.80;95.00;;;;;;5001693;28;20050;-69
2023/07/14 11:14:44;;;;;;;0.08;0.00;;;26.70;92.50;;;;;;4999398;28;20121;-68
2023/07/14 11:17:21;;;;;;;0.20;0.10;;;26.40;90.90;;;;;;5005867;28;20034;-69
2023/07/14 11:20:12;;;;;;;0.15;0.10;;;26.00;95.30;;;;;;5002140;28;20683;-69
2023/07/14 11:22:38;;;;;;;0.52;0.20;;;25.50;91.30;;;;;;4994284;28;20042;-69
2023/07/14 11:25:24;;;;;;;0.57;0.13;;;25.20;92.50;;;;;;5000688;28;20048;-69
2023/07/14 11:28:06;;;;;;;1.00;0.10;;;25.30;93.60;;;;;;5002838;28;20124;-69
2023/07/14 11:30:39;;;;;;;0.38;0.10;;;25.40;95.90;;;;;;4997775;28;20061;-69
2023/07/14 11:33:14;;;;;;;0.17;0.10;;;25.20;96.50;;;;;;5001482;28;20050;-68
2023/07/14 11:36:01;;;;;;;0.30;0.10;;;25.10;96.70;;;;;;5001463;28;20047;-69
2023/07/14 11:38:38;;;;;;;1.05;0.10;;;25.10;97.90;;;;;;4999882;28;20112;-69
2023/07/14 11:41:05;;;;;;;0.00;0.00;;;25.60;98.70;;;;;;4992346;28;20389;-69
2023/07/14 11:43:32;;;;;;;0.22;0.10;;;26.10;96.30;;;;;;4997571;28;20038;-69
2023/07/14 11:46:08;;;;;;;0.10;0.00;;;26.00;97.40;;;;;;4998819;28;20057;-69
2023/07/14 11:48:34;;;;;;;0.10;0.08;;;25.70;94.90;;;;;;4996750;28;20406;-68
2023/07/14 11:51:13;;;;;;;0.28;0.03;;;25.50;96.80;;;;;;4994792;28;20058;-68
2023/07/14 11:53:42;;;;;;;0.30;0.13;;;25.20;97.00;;;;;;5000863;28;20100;-69
2023/07/14 11:56:21;;;;;;;0.25;0.15;;;24.90;95.30;;;;;;4998896;28;20558;-68
2023/07/14 11:58:51;;;;;;;0.00;0.00;;;24.60;97.20;;;;;;4997227;28;20042;-69
2023/07/14 12:01:24;;;;;;;0.55;0.38;;;24.40;97.60;;;;;;4994912;28;20073;-69
2023/07/14 12:04:13;;;;;;;0.20;0.15;;;24.20;98.00;;;;;;5001001;28;20099;-69
2023/07/14 12:07:09;;;;;;;0.17;0.05;;;24.00;97.80;;;;;;4996056;28;20121;-68
2023/07/14 12:09:56;;;;;;;0.30;0.10;;;23.90;97.10;;;;;;4995578;28;20044;-69
2023/07/14 12:12:21;;;;;;;0.40;0.13;;;24.00;98.70;;;;;;4993524;28;20042;-69
2023/07/14 12:14:51;;;;;;;0.47;0.10;;;23.90;98.90;;;;;;4998723;28;20042;-68
2023/07/14 12:17:47;;;;;;;0.28;0.10;;;23.90;99.40;;;;;;4993790;28;20422;-69
2023/07/14 12:20:13;;;;;;;0.30;0.13;;;23.90;99.00;;;;;;5014954;28;20398;-68
2023/07/14 12:22:53;;;;;;;1.55;0.10;;;23.90;99.30;;;;;;4997945;28;20045;-69
2023/07/14 12:25:22;;;;;;;0.45;0.00;;;23.90;99.10;;;;;;5004614;28;20034;-69
2023/07/14 12:27:53;;;;;;;0.05;0.00;;;24.10;99.60;;;;;;4991339;28;20077;-68
2023/07/14 12:30:27;;;;;;;0.20;0.13;;;24.50;99.00;;;;;;5013565;28;20075;-69
2023/07/14 12:33:03;;;;;;;0.00;0.00;;;24.90;98.90;;;;;;4998873;28;20046;-69
2023/07/14 12:35:30;;;;;;;0.20;0.10;;;25.20;97.50;;;;;;4996965;28;20046;-68
2023/07/14 12:38:15;;;;;;;0.35;0.10;;;25.50;96.90;;;;;;4992314;28;20041;-68
2023/07/14 12:40:42;;;;;;;0.55;0.20;;;25.60;95.70;;;;;;4999752;28;20050;-68
2023/07/14 12:43:19;;;;;;;0.13;0.00;;;25.40;97.80;;;;;;5004911;28;20513;-68
2023/07/14 12:45:45;;;;;;;0.28;0.10;;;25.20;98.00;;;;;;4997809;28;20050;-68
2023/07/14 12:48:11;;;;;;;0.30;0.10;;;24.90;98.00;;;;;;4997297;28;20052;-67
2023/07/14 12:50:40;;;;;;;0.38;0.10;;;24.80;98.60;;;;;;5003444;28;20671;-68
2023/07/14 12:53:15;;;;;;;0.65;0.17;;;24.70;98.60;;;;;;5002150;28;20046;-68
2023/07/14 12:55:44;;;;;;;1.10;0.20;;;24.70;98.90;;;;;;5003845;28;20056;-68
2023/07/14 12:58:23;;;;;;;0.35;0.20;;;24.60;98.80;;;;;;4997487;28;20034;-69
2023/07/14 13:00:57;;;;;;;0.50;0.10;;;24.50;99.00;;;;;;5004378;28;20042;-68
2023/07/14 13:03:24;;;;;;;0.65;0.10;;;24.70;98.40;;;;;;5004055;28;20054;-68